Alplaus, NY (12008)

2:08 PM EDT on May 26, 2017 (GMT -0400)
Daily Gazette | | Change Station

Elev 295 ft 42.83 °N, 73.92 °W | Updated 8 seconds ago

Overcast
Overcast
61.0 °F
Feels Like 61.0 °F
N
6.9
Wind Variable Wind from West
Gusts 16.1 mph

Today
High -- | Low -- °F
--% Chance of Precip.
Yesterday
High -- | Low -- °F
Precip. -- in
Pressure 29.58 in
Visibility 15.0 miles
Clouds Overcast 3300 ft
Dew Point Not available.
Humidity Not available.
Rainfall 0.29 in
Snow Depth Not available.
5:23 AM 8:22 PM
New Moon, 1% visible
METAR KSCH 261745Z AUTO 28007G15KT 15SM OVC033 16/13 A2958
Pressure 29.58 in
Visibility 15.0 miles
Clouds Overcast 3300 ft
Dew Point Not available.
Humidity Not available.
Rainfall 0.29 in
Snow Depth Not available.
5:23 AM 8:22 PM
New Moon, 1% visible
METAR KSCH 261745Z AUTO 28007G15KT 15SM OVC033 16/13 A2958

Get Severe Weather Alerts

Thanks for signing up!

Be on the lookout for a verification email in your inbox.

You'll start receiving the daily forecast at 6 AM.

×

10-Day Weather Forecast

Almanac

Astronomy

May. 26, 2017 Rise Set
Actual Time
Civil Twilight
Nautical Twilight
Astronomical Twilight
Moon
Length of Visible Light
Length of Day
Tomorrow will be .
, % of the Moon is Illuminated

Today's Extremes

State Highs State Lows

Community

WunderPhotos

Category 6

Welcome to Category 6. This is the collective home for Weather Underground's featured writeups by Dr. Jeff Masters (right), Bob Henson (left), Chris Burt, and other regular contributors.

Nearby

Air Quality

  Air Quality AQ Index Pollutant
Not available.

Snow Depth

Station Depth Elevation

Earthquake Activity

City Distance Mag. Time & Date
Minimum magnitude displayed is 2.5.

Coastal Water Temperatures

Place Temperature

Stations

Nearby Weather Stations

Station Location Temp. Windchill Dew Point Humidity Wind Precip. Elev Updated Type
                   

Watches & Warnings

There are currently no watches in effect.